createdAt,value
2022-10-16T00:02:11.186Z,100852.22
2022-10-16T00:04:43.883Z,100846.13
2022-10-16T00:07:19.980Z,100860.09
2022-10-16T00:10:23.451Z,100863.63
2022-10-16T00:13:01.072Z,100865.41
2022-10-16T00:15:34.796Z,100860.13
2022-10-16T00:18:06.476Z,100868.91
2022-10-16T00:20:49.183Z,100855.78
2022-10-16T00:23:23.749Z,100841.81
2022-10-16T00:26:53.929Z,100838.34
2022-10-16T00:29:33.667Z,100861.97
2022-10-16T00:32:41.234Z,100843.63
2022-10-16T00:43:53.663Z,100845.34
2022-10-16T00:46:29.463Z,100852.38
2022-10-16T00:49:22.833Z,100863.66
2022-10-16T00:52:03.935Z,100869.84
2022-10-16T00:54:44.895Z,100862.84
2022-10-16T00:57:16.010Z,100862.84
2022-10-16T01:00:06.681Z,100861.06
2022-10-16T01:05:37.255Z,100854.94
2022-10-16T01:08:21.826Z,100851.41
2022-10-16T01:11:03.372Z,100855.81
2022-10-16T01:14:00.622Z,100855.81
2022-10-16T01:20:34.244Z,100857.59
2022-10-16T01:23:56.220Z,100851.41
2022-10-16T01:27:26.712Z,100852.31
2022-10-16T01:30:22.976Z,100855.00
2022-10-16T01:33:06.714Z,100845.28
2022-10-16T01:35:51.702Z,100833.94
2022-10-16T01:38:34.435Z,100853.16
2022-10-16T01:41:35.217Z,100853.09
2022-10-16T01:47:48.870Z,100849.56
2022-10-16T01:50:50.318Z,100840.88
2022-10-16T01:53:39.523Z,100848.69
2022-10-16T01:56:20.349Z,100849.56
2022-10-16T01:59:12.199Z,100845.19
2022-10-16T02:04:49.878Z,100845.22
2022-10-16T02:07:20.728Z,100847.78
2022-10-16T02:10:01.279Z,100848.69
2022-10-16T02:12:57.110Z,100835.59
2022-10-16T02:15:34.929Z,100832.09
2022-10-16T02:18:10.821Z,100849.56
2022-10-16T02:20:56.517Z,100853.00
2022-10-16T02:24:03.242Z,100833.81
2022-10-16T02:26:42.627Z,100851.25
2022-10-16T02:29:19.766Z,100850.38
2022-10-16T02:32:22.419Z,100862.53
2022-10-16T02:35:22.627Z,100864.22
2022-10-16T02:38:08.661Z,100856.38
2022-10-16T02:40:46.836Z,100862.34
2022-10-16T02:43:20.310Z,100843.97
2022-10-16T02:45:55.542Z,100850.00
2022-10-16T02:48:31.663Z,100849.94
2022-10-16T02:51:14.946Z,100847.31
2022-10-16T02:54:21.656Z,100855.19
2022-10-16T02:56:59.714Z,100865.69
2022-10-16T02:59:31.673Z,100865.69
2022-10-16T03:02:14.684Z,100863.91
2022-10-16T03:04:46.871Z,100868.22
2022-10-16T03:07:36.038Z,100862.09
2022-10-16T03:10:15.848Z,100884.00
2022-10-16T03:13:07.653Z,100879.63
2022-10-16T03:15:55.918Z,100877.88
2022-10-16T03:18:43.403Z,100885.75
2022-10-16T03:21:28.863Z,100877.78
2022-10-16T03:24:09.528Z,100888.34
2022-10-16T03:26:44.800Z,100883.03
2022-10-16T03:32:12.836Z,100871.75
2022-10-16T03:34:58.857Z,100896.28
2022-10-16T03:37:51.220Z,100898.88
2022-10-16T03:40:43.221Z,100879.66
2022-10-16T03:43:18.474Z,100896.22
2022-10-16T03:45:56.617Z,100893.63
2022-10-16T03:48:30.802Z,100898.06
2022-10-16T03:51:04.553Z,100905.97
2022-10-16T03:53:44.334Z,100898.97
2022-10-16T03:59:19.146Z,100882.34
2022-10-16T04:02:06.398Z,100890.19
2022-10-16T04:04:39.815Z,100882.34
2022-10-16T04:07:19.379Z,100872.78
2022-10-16T04:10:00.149Z,100876.38
2022-10-16T04:12:57.573Z,100867.72
2022-10-16T04:15:39.888Z,100883.56
2022-10-16T04:18:27.088Z,100904.59
2022-10-16T04:21:09.568Z,100886.31
2022-10-16T04:23:42.590Z,100896.84
2022-10-16T04:26:26.147Z,100901.22
2022-10-16T04:29:13.546Z,100900.34
2022-10-16T04:31:48.177Z,100889.03
2022-10-16T04:34:26.106Z,100904.66
2022-10-16T04:39:53.991Z,100926.50
2022-10-16T04:42:27.233Z,100922.94
2022-10-16T04:45:02.815Z,100929.97
2022-10-16T04:47:47.304Z,100940.50
2022-10-16T04:50:22.293Z,100942.31
2022-10-16T04:53:06.299Z,100946.72
2022-10-16T04:58:39.456Z,100947.53
2022-10-16T05:01:18.705Z,100958.03
2022-10-16T05:04:02.432Z,100939.59
2022-10-16T05:06:51.211Z,100968.47
2022-10-16T05:09:31.017Z,100957.94
2022-10-16T05:12:06.096Z,100974.53
2022-10-16T05:14:41.453Z,100973.59
2022-10-16T05:17:18.924Z,100981.41
2022-10-16T05:19:51.942Z,100978.78
2022-10-16T05:22:31.556Z,100977.88
2022-10-16T05:25:48.234Z,100965.59
2022-10-16T05:28:37.253Z,100980.50
2022-10-16T05:31:20.856Z,100970.00
2022-10-16T05:34:03.637Z,100978.81
2022-10-16T05:37:11.847Z,100981.41
2022-10-16T05:39:52.145Z,100979.69
2022-10-16T05:42:33.159Z,100984.91
2022-10-16T05:45:07.411Z,100999.78
2022-10-16T05:53:52.585Z,100977.88
2022-10-16T05:56:22.818Z,100994.50
2022-10-16T05:58:58.322Z,100992.72
2022-10-16T06:01:54.626Z,100994.50
2022-10-16T06:04:25.343Z,101000.63
2022-10-16T06:06:59.131Z,100995.38
2022-10-16T06:09:53.543Z,100991.88
2022-10-16T06:12:31.714Z,100998.94
2022-10-16T06:15:12.508Z,101021.72
2022-10-16T06:18:00.047Z,101013.03
2022-10-16T06:23:24.285Z,101031.34
2022-10-16T06:26:12.967Z,101037.47
2022-10-16T06:28:46.976Z,101042.78
2022-10-16T06:31:34.652Z,101037.56
2022-10-16T06:34:12.043Z,101030.56
2022-10-16T06:36:45.424Z,101041.13
2022-10-16T06:39:16.487Z,101047.22
2022-10-16T06:41:55.446Z,101053.34
2022-10-16T06:44:44.842Z,101055.06
2022-10-16T06:47:28.067Z,101065.59
2022-10-16T06:50:23.619Z,101062.06
2022-10-16T06:53:07.653Z,101059.47
2022-10-16T06:55:40.140Z,101042.84
2022-10-16T07:01:01.352Z,101071.69
2022-10-16T07:07:04.454Z,101068.03
2022-10-16T07:09:52.288Z,101078.53
2022-10-16T07:12:38.631Z,101086.31
2022-10-16T07:15:31.265Z,101100.25
2022-10-16T07:18:07.993Z,101109.84
2022-10-16T07:20:52.554Z,101112.44
2022-10-16T07:23:30.184Z,101122.97
2022-10-16T07:26:18.523Z,101127.38
2022-10-16T07:28:56.227Z,101118.63
2022-10-16T07:31:44.660Z,101135.19
2022-10-16T07:34:33.863Z,101130.72
2022-10-16T07:39:59.899Z,101141.13
2022-10-16T07:43:16.138Z,101140.16
2022-10-16T07:46:01.318Z,101150.63
2022-10-16T07:48:54.012Z,101148.81
2022-10-16T07:51:35.822Z,101157.53
2022-10-16T07:54:29.412Z,101167.16
2022-10-16T07:57:21.352Z,101156.56
2022-10-16T07:59:56.157Z,101158.41
2022-10-16T08:02:37.939Z,101169.78
2022-10-16T08:05:43.274Z,101168.94
2022-10-16T08:08:27.410Z,101172.50
2022-10-16T08:11:09.786Z,101175.22
2022-10-16T08:13:59.119Z,101184.97
2022-10-16T08:16:34.129Z,101188.59
2022-10-16T08:22:10.913Z,101194.78
2022-10-16T08:24:57.253Z,101187.78
2022-10-16T08:30:45.169Z,101199.19
2022-10-16T08:33:28.568Z,101214.00
2022-10-16T08:36:02.588Z,101198.19
2022-10-16T08:38:43.691Z,101220.91
2022-10-16T08:41:39.151Z,101217.47
2022-10-16T08:45:09.227Z,101222.75
2022-10-16T08:47:57.264Z,101233.31
2022-10-16T08:50:33.221Z,101235.03
2022-10-16T08:53:09.668Z,101238.47
2022-10-16T08:55:57.699Z,101237.50
2022-10-16T08:58:36.356Z,101231.28
2022-10-16T09:01:15.395Z,101251.31
2022-10-16T09:04:38.268Z,101255.69
2022-10-16T09:07:21.488Z,101260.91
2022-10-16T09:10:07.678Z,101266.13
2022-10-16T09:12:43.837Z,101272.22
2022-10-16T09:15:35.862Z,101276.63
2022-10-16T09:18:30.150Z,101285.50
2022-10-16T09:21:14.129Z,101273.94
2022-10-16T09:23:52.837Z,101296.66
2022-10-16T09:26:41.195Z,101288.69
2022-10-16T09:29:13.957Z,101294.69
2022-10-16T09:31:50.589Z,101295.47
2022-10-16T09:34:45.353Z,101298.69
2022-10-16T09:37:23.083Z,101300.28
2022-10-16T09:40:05.205Z,101317.78
2022-10-16T09:42:39.583Z,101322.16
2022-10-16T09:45:26.885Z,101308.16
2022-10-16T09:48:03.501Z,101296.63
2022-10-16T09:50:34.478Z,101314.75
2022-10-16T09:53:44.406Z,101313.75
2022-10-16T09:56:24.183Z,101337.31
2022-10-16T09:59:02.580Z,101336.50
2022-10-16T10:02:06.066Z,101345.19
2022-10-16T10:04:47.317Z,101337.91
2022-10-16T10:07:28.519Z,101343.97
2022-10-16T10:10:01.533Z,101352.56
2022-10-16T10:12:37.172Z,101354.09
2022-10-16T10:15:11.150Z,101346.16
2022-10-16T10:17:54.025Z,101348.84
2022-10-16T10:20:30.455Z,101362.19
2022-10-16T10:22:59.532Z,101357.03
2022-10-16T10:25:52.288Z,101364.25
2022-10-16T10:28:50.019Z,101362.63
2022-10-16T10:31:27.164Z,101367.97
2022-10-16T10:34:41.977Z,101373.97
2022-10-16T10:37:36.555Z,101364.88
2022-10-16T10:40:25.347Z,101369.22
2022-10-16T10:43:09.610Z,101377.81
2022-10-16T10:45:48.923Z,101378.53
2022-10-16T10:48:52.787Z,101391.84
2022-10-16T10:51:31.540Z,101427.22
2022-10-16T10:54:11.169Z,101397.16
2022-10-16T10:56:50.276Z,101392.53
2022-10-16T10:59:56.708Z,101401.25
2022-10-16T11:02:35.593Z,101398.59
2022-10-16T11:05:35.726Z,101403.78
2022-10-16T11:08:12.060Z,101398.22
2022-10-16T11:10:50.080Z,101419.22
2022-10-16T11:13:31.332Z,101417.25
2022-10-16T11:16:04.066Z,101427.75
2022-10-16T11:18:44.777Z,101427.16
2022-10-16T11:21:16.759Z,101435.16
2022-10-16T11:23:54.619Z,101439.53
2022-10-16T11:26:26.134Z,101438.78
2022-10-16T11:28:56.878Z,101446.13
2022-10-16T11:31:35.585Z,101435.72
2022-10-16T11:34:16.907Z,101437.59
2022-10-16T11:36:52.331Z,101447.25
2022-10-16T11:39:26.616Z,101442.56
2022-10-16T11:41:58.919Z,101454.66
2022-10-16T11:44:41.086Z,101460.53
2022-10-16T11:47:54.414Z,101452.31
2022-10-16T11:50:25.375Z,101448.50
2022-10-16T11:53:03.659Z,101447.53
2022-10-16T11:55:41.787Z,101454.56
2022-10-16T11:58:25.305Z,101449.03
2022-10-16T12:01:04.739Z,101458.56
2022-10-16T12:03:44.903Z,101455.94
2022-10-16T12:06:30.867Z,101460.50
2022-10-16T12:09:01.849Z,101469.31
2022-10-16T12:11:41.021Z,101474.69
2022-10-16T12:14:43.005Z,101469.38
2022-10-16T12:17:35.794Z,101471.00
2022-10-16T12:20:24.684Z,101487.63
2022-10-16T12:22:56.467Z,101493.63
2022-10-16T12:25:29.480Z,101486.38
2022-10-16T12:28:03.215Z,101501.19
2022-10-16T12:30:35.908Z,101492.03
2022-10-16T12:33:07.536Z,101496.97
2022-10-16T12:35:44.760Z,101503.72
2022-10-16T12:38:21.175Z,101504.00
2022-10-16T12:40:58.838Z,101505.69
2022-10-16T12:43:39.759Z,101501.16
2022-10-16T12:46:26.091Z,101524.41
2022-10-16T12:49:09.427Z,101521.91
2022-10-16T12:51:39.123Z,101533.22
2022-10-16T12:54:16.208Z,101520.19
2022-10-16T12:57:00.176Z,101531.50
2022-10-16T12:59:45.936Z,101536.44
2022-10-16T13:03:10.355Z,101544.66
2022-10-16T13:05:56.948Z,101534.03
2022-10-16T13:08:43.795Z,101534.69
2022-10-16T13:11:22.896Z,101548.72
2022-10-16T13:14:09.554Z,101523.53
2022-10-16T13:16:52.665Z,101543.03
2022-10-16T13:19:31.775Z,101551.00
2022-10-16T13:22:07.528Z,101559.47
2022-10-16T13:24:57.471Z,101560.63
2022-10-16T13:27:39.079Z,101548.41
2022-10-16T13:30:18.090Z,101574.50
2022-10-16T13:35:27.512Z,101572.38
2022-10-16T13:38:07.823Z,101569.59
2022-10-16T13:40:36.054Z,101566.94
2022-10-16T13:43:04.700Z,101567.41
2022-10-16T13:45:32.798Z,101570.22
2022-10-16T13:48:06.545Z,101576.47
2022-10-16T13:50:34.695Z,101584.31
2022-10-16T13:53:09.763Z,101583.47
2022-10-16T13:55:38.353Z,101595.53
2022-10-16T13:58:14.475Z,101589.81
2022-10-16T14:00:45.174Z,101590.28
2022-10-16T14:03:17.418Z,101592.41
2022-10-16T14:05:51.138Z,101603.44
2022-10-16T14:08:19.923Z,101603.75
2022-10-16T14:10:51.752Z,101616.53
2022-10-16T14:13:24.163Z,101605.34
2022-10-16T14:15:56.057Z,101613.59
2022-10-16T14:18:33.272Z,101613.78
2022-10-16T14:21:09.594Z,101614.88
2022-10-16T14:23:39.960Z,101622.09
2022-10-16T14:26:15.793Z,101612.53
2022-10-16T14:28:45.518Z,101618.03
2022-10-16T14:31:29.683Z,101625.34
2022-10-16T14:34:00.612Z,101630.78
2022-10-16T14:36:29.999Z,101630.94
2022-10-16T14:39:05.208Z,101638.03
2022-10-16T14:41:35.365Z,101644.22
2022-10-16T14:44:06.092Z,101650.41
2022-10-16T14:46:38.099Z,101655.72
2022-10-16T14:49:20.778Z,101654.00
2022-10-16T14:51:49.436Z,101647.81
2022-10-16T14:54:20.292Z,101648.75
2022-10-16T14:56:53.242Z,101656.81
2022-10-16T14:59:28.483Z,101672.78
2022-10-16T15:01:56.775Z,101667.47
2022-10-16T15:04:26.380Z,101664.84
2022-10-16T15:06:54.512Z,101661.31
2022-10-16T15:09:22.592Z,101655.16
2022-10-16T15:11:50.932Z,101657.81
2022-10-16T15:14:19.471Z,101656.97
2022-10-16T15:16:48.258Z,101655.25
2022-10-16T15:19:16.405Z,101657.91
2022-10-16T15:21:45.974Z,101663.28
2022-10-16T15:24:19.215Z,101655.34
2022-10-16T15:26:50.221Z,101657.13
2022-10-16T15:29:18.700Z,101659.84
2022-10-16T15:31:48.577Z,101666.97
2022-10-16T15:34:17.666Z,101665.25
2022-10-16T15:36:47.318Z,101660.00
2022-10-16T15:39:18.536Z,101662.75
2022-10-16T15:41:51.514Z,101663.75
2022-10-16T15:44:19.764Z,101673.56
2022-10-16T15:46:48.587Z,101674.53
2022-10-16T15:49:16.872Z,101676.44
2022-10-16T15:51:47.906Z,101679.25
2022-10-16T15:54:16.201Z,101681.13
2022-10-16T15:56:45.066Z,101681.25
2022-10-16T15:59:13.181Z,101684.91
2022-10-16T16:01:41.714Z,101682.44
2022-10-16T16:04:11.253Z,101684.34
2022-10-16T16:06:50.096Z,101691.53
2022-10-16T16:09:18.244Z,101689.88
2022-10-16T16:11:46.707Z,101696.19
2022-10-16T16:14:15.996Z,101690.13
2022-10-16T16:16:44.409Z,101696.44
2022-10-16T16:19:12.730Z,101706.19
2022-10-16T16:21:41.002Z,101706.28
2022-10-16T16:24:11.026Z,101695.78
2022-10-16T16:26:40.917Z,101702.97
2022-10-16T16:29:10.674Z,101703.06
2022-10-16T16:31:39.534Z,101697.00
2022-10-16T16:34:08.764Z,101707.63
2022-10-16T16:36:37.491Z,101703.28
2022-10-16T16:39:05.831Z,101719.22
2022-10-16T16:41:35.611Z,101726.28
2022-10-16T16:44:06.405Z,101730.72
2022-10-16T16:46:35.718Z,101723.72
2022-10-16T16:49:05.038Z,101726.38
2022-10-16T16:51:36.913Z,101728.16
2022-10-16T16:54:09.806Z,101741.38
2022-10-16T16:56:39.447Z,101749.31
2022-10-16T16:59:07.640Z,101747.56
2022-10-16T17:01:35.974Z,101747.56
2022-10-16T17:04:04.043Z,101751.06
2022-10-16T17:06:32.246Z,101759.84
2022-10-16T17:09:00.957Z,101761.59
2022-10-16T17:11:30.451Z,101769.53
2022-10-16T17:14:01.286Z,101765.09
2022-10-16T17:16:32.706Z,101774.72
2022-10-16T17:19:04.920Z,101783.47
2022-10-16T17:21:33.233Z,101776.44
2022-10-16T17:24:01.971Z,101776.41
2022-10-16T17:26:30.356Z,101786.03
2022-10-16T17:29:02.838Z,101787.75
2022-10-16T17:31:35.193Z,101780.69
2022-10-16T17:34:06.564Z,101786.81
2022-10-16T17:36:37.554Z,101790.28
2022-10-16T17:39:09.600Z,101785.91
2022-10-16T17:41:38.340Z,101796.41
2022-10-16T17:44:09.268Z,101793.78
2022-10-16T17:46:40.944Z,101787.63
2022-10-16T17:49:10.810Z,101787.63
2022-10-16T17:51:39.027Z,101789.38
2022-10-16T17:54:09.864Z,101786.75
2022-10-16T17:56:37.956Z,101799.91
2022-10-16T17:59:07.834Z,101804.31
2022-10-16T18:01:40.102Z,101817.47
2022-10-16T18:04:12.377Z,101829.75
2022-10-16T18:06:42.778Z,101827.97
2022-10-16T18:09:14.946Z,101828.84
2022-10-16T18:11:43.207Z,101840.22
2022-10-16T18:14:15.679Z,101834.06
2022-10-16T18:16:44.181Z,101832.31
2022-10-16T18:19:13.265Z,101832.28
2022-10-16T18:21:41.703Z,101841.06
2022-10-16T18:24:11.165Z,101827.88
2022-10-16T18:26:39.919Z,101842.81
2022-10-16T18:29:08.772Z,101838.41
2022-10-16T18:31:41.885Z,101841.03
2022-10-16T18:34:12.452Z,101833.16
2022-10-16T18:36:42.293Z,101834.03
2022-10-16T18:39:11.439Z,101834.00
2022-10-16T18:41:40.825Z,101834.88
2022-10-16T18:44:10.877Z,101836.66
2022-10-16T18:46:41.030Z,101831.41
2022-10-16T18:49:09.178Z,101828.78
2022-10-16T18:51:40.638Z,101834.03
2022-10-16T18:54:11.489Z,101842.81
2022-10-16T18:56:40.339Z,101833.19
2022-10-16T18:59:10.433Z,101843.72
2022-10-16T19:01:42.571Z,101854.25
2022-10-16T19:04:13.369Z,101862.13
2022-10-16T19:06:45.044Z,101844.56
2022-10-16T19:15:01.403Z,101854.16
2022-10-16T19:17:39.823Z,101854.16
2022-10-16T19:20:11.099Z,101854.19
2022-10-16T19:23:02.070Z,101856.81
2022-10-16T19:25:30.529Z,101845.41
2022-10-16T19:27:59.381Z,101854.19
2022-10-16T19:30:29.831Z,101857.72
2022-10-16T19:35:53.136Z,101855.09
2022-10-16T19:38:29.410Z,101862.13
2022-10-16T19:41:08.139Z,101858.66
2022-10-16T19:43:47.666Z,101855.16
2022-10-16T19:46:20.639Z,101859.53
2022-10-16T19:49:05.645Z,101850.78
2022-10-16T19:51:35.877Z,101857.78
2022-10-16T19:54:08.986Z,101863.94
2022-10-16T19:56:40.971Z,101873.59
2022-10-16T19:59:17.292Z,101880.66
2022-10-16T20:01:49.097Z,101868.31
2022-10-16T20:04:21.215Z,101865.69
2022-10-16T20:09:23.901Z,101875.34
2022-10-16T20:11:53.049Z,101885.88
2022-10-16T20:14:37.514Z,101891.13
2022-10-16T20:17:15.220Z,101884.09
2022-10-16T20:19:50.866Z,101873.56
2022-10-16T20:22:19.467Z,101878.84
2022-10-16T20:24:51.211Z,101863.00
2022-10-16T20:27:21.519Z,101882.34
2022-10-16T20:29:51.535Z,101887.63
2022-10-16T20:32:25.346Z,101892.06
2022-10-16T20:35:07.107Z,101877.97
2022-10-16T20:37:38.036Z,101894.72
2022-10-16T20:40:16.697Z,101899.94
2022-10-16T20:42:48.659Z,101901.72
2022-10-16T20:45:17.181Z,101897.31
2022-10-16T20:47:46.787Z,101885.88
2022-10-16T20:50:18.215Z,101876.25
2022-10-16T20:52:53.380Z,101883.28
2022-10-16T20:55:29.601Z,101876.28
2022-10-16T20:58:02.295Z,101878.91
2022-10-16T21:00:47.765Z,101882.34
2022-10-16T21:03:19.009Z,101890.28
2022-10-16T21:08:46.705Z,101870.94
2022-10-16T21:11:21.130Z,101878.88
2022-10-16T21:19:24.576Z,101864.00
2022-10-16T21:21:55.257Z,101861.38
2022-10-16T21:24:26.460Z,101846.47
2022-10-16T21:27:21.593Z,101843.84
2022-10-16T21:29:51.305Z,101826.28
2022-10-16T21:32:38.786Z,101836.88
2022-10-16T21:35:09.462Z,101832.50
2022-10-16T21:37:49.834Z,101843.94
2022-10-16T21:40:18.231Z,101842.19
2022-10-16T21:42:54.518Z,101832.53
2022-10-16T21:48:05.944Z,101839.59
2022-10-16T21:50:36.943Z,101843.97
2022-10-16T21:53:28.705Z,101826.38
2022-10-16T21:56:04.792Z,101838.72
2022-10-16T21:58:40.695Z,101843.13
2022-10-16T22:01:13.710Z,101829.06
2022-10-16T22:03:42.717Z,101827.34
2022-10-16T22:06:12.327Z,101836.09
2022-10-16T22:09:14.898Z,101840.50
2022-10-16T22:11:46.847Z,101821.16
2022-10-16T22:14:50.711Z,101825.56
2022-10-16T22:17:25.068Z,101810.63
2022-10-16T22:20:02.756Z,101819.41
2022-10-16T22:22:33.939Z,101820.28
2022-10-16T22:25:07.077Z,101827.31
2022-10-16T22:27:35.468Z,101818.56
2022-10-16T22:30:04.179Z,101816.81
2022-10-16T22:32:35.065Z,101808.91
2022-10-16T22:35:04.786Z,101801.84
2022-10-16T22:37:35.551Z,101805.38
2022-10-16T22:40:06.161Z,101796.59
2022-10-16T22:42:37.571Z,101803.63
2022-10-16T22:45:08.118Z,101807.16
2022-10-16T22:47:40.756Z,101807.16
2022-10-16T22:50:16.590Z,101807.16
2022-10-16T22:52:47.104Z,101799.25
2022-10-16T22:56:03.677Z,101799.19
2022-10-16T22:58:32.070Z,101818.53
2022-10-16T23:01:01.675Z,101816.75
2022-10-16T23:03:46.170Z,101812.38
2022-10-16T23:06:26.252Z,101812.38
2022-10-16T23:09:11.853Z,101800.91
2022-10-16T23:11:50.068Z,101789.47
2022-10-16T23:14:26.065Z,101782.41
2022-10-16T23:17:02.970Z,101789.44
2022-10-16T23:19:32.761Z,101792.00
2022-10-16T23:22:07.328Z,101797.25
2022-10-16T23:24:42.907Z,101787.53
2022-10-16T23:27:27.573Z,101777.88
2022-10-16T23:30:01.053Z,101790.16
2022-10-16T23:32:30.116Z,101791.00
2022-10-16T23:37:47.661Z,101792.75
2022-10-16T23:40:17.599Z,101796.25
2022-10-16T23:42:52.668Z,101794.50
2022-10-16T23:45:23.046Z,101799.75
2022-10-16T23:47:55.546Z,101811.13
2022-10-16T23:50:24.269Z,101820.78
2022-10-16T23:52:53.369Z,101820.81
2022-10-16T23:55:25.753Z,101813.88
2022-10-16T23:57:56.130Z,101822.78
